createdAt,value
2023-03-16T00:02:28.108Z,101465.00
2023-03-16T00:04:59.740Z,101463.91
2023-03-16T00:07:32.669Z,101469.03
2023-03-16T00:10:04.639Z,101466.38
2023-03-16T00:12:37.949Z,101464.69
2023-03-16T00:15:11.141Z,101467.47
2023-03-16T00:17:48.330Z,101467.56
2023-03-16T00:20:20.495Z,101461.66
2023-03-16T00:22:52.327Z,101455.09
2023-03-16T00:25:24.256Z,101464.25
2023-03-16T00:27:57.216Z,101465.25
2023-03-16T00:30:29.447Z,101464.56
2023-03-16T00:33:02.170Z,101468.56
2023-03-16T00:35:34.684Z,101457.25
2023-03-16T00:38:06.556Z,101458.25
2023-03-16T00:40:38.407Z,101470.88
2023-03-16T00:43:11.741Z,101461.41
2023-03-16T00:45:44.752Z,101467.31
2023-03-16T00:48:16.512Z,101455.50
2023-03-16T00:50:48.061Z,101458.94
2023-03-16T00:53:19.876Z,101459.09
2023-03-16T00:55:53.434Z,101459.66
2023-03-16T00:58:26.414Z,101457.38
2023-03-16T01:00:59.512Z,101450.41
2023-03-16T01:03:31.426Z,101449.00
2023-03-16T01:06:06.757Z,101450.72
2023-03-16T01:08:39.391Z,101459.31
2023-03-16T01:11:16.180Z,101459.09
2023-03-16T01:13:54.236Z,101453.19
2023-03-16T01:16:25.945Z,101450.88
2023-03-16T01:18:57.933Z,101461.41
2023-03-16T01:21:32.418Z,101456.50
2023-03-16T01:24:04.478Z,101462.00
2023-03-16T01:26:37.416Z,101455.78
2023-03-16T01:29:10.374Z,101452.25
2023-03-16T01:31:43.189Z,101446.13
2023-03-16T01:34:18.462Z,101449.59
2023-03-16T01:36:53.978Z,101438.44
2023-03-16T01:39:25.871Z,101446.34
2023-03-16T01:41:58.012Z,101435.97
2023-03-16T01:44:50.810Z,101441.22
2023-03-16T01:47:23.329Z,101442.16
2023-03-16T01:49:58.420Z,101436.81
2023-03-16T01:52:36.801Z,101442.88
2023-03-16T01:55:13.488Z,101437.66
2023-03-16T01:57:50.460Z,101432.34
2023-03-16T02:00:31.463Z,101428.22
2023-03-16T02:03:09.488Z,101433.72
2023-03-16T02:05:49.934Z,101428.38
2023-03-16T02:08:23.071Z,101425.03
2023-03-16T02:10:56.545Z,101431.75
2023-03-16T02:13:29.526Z,101434.41
2023-03-16T02:16:03.850Z,101434.28
2023-03-16T02:18:36.542Z,101441.38
2023-03-16T02:21:19.346Z,101437.97
2023-03-16T02:23:51.672Z,101431.22
2023-03-16T02:26:34.679Z,101440.91
2023-03-16T02:29:18.092Z,101426.19
2023-03-16T02:31:52.160Z,101431.59
2023-03-16T02:34:24.910Z,101428.47
2023-03-16T02:37:00.782Z,101432.16
2023-03-16T02:39:34.367Z,101427.97
2023-03-16T02:42:13.174Z,101421.03
2023-03-16T02:44:48.756Z,101423.81
2023-03-16T02:47:35.015Z,101421.09
2023-03-16T02:50:09.084Z,101419.50
2023-03-16T02:52:41.866Z,101415.81
2023-03-16T02:55:13.794Z,101403.53
2023-03-16T02:57:45.743Z,101402.53
2023-03-16T03:00:18.696Z,101398.97
2023-03-16T03:02:52.476Z,101399.19
2023-03-16T03:05:24.161Z,101397.63
2023-03-16T03:07:56.104Z,101403.88
2023-03-16T03:10:28.311Z,101400.25
2023-03-16T03:13:00.833Z,101399.34
2023-03-16T03:15:33.422Z,101400.25
2023-03-16T03:18:07.271Z,101402.19
2023-03-16T03:20:39.165Z,101390.25
2023-03-16T03:23:10.993Z,101394.66
2023-03-16T03:25:42.865Z,101399.06
2023-03-16T03:28:15.299Z,101393.66
2023-03-16T03:30:46.894Z,101389.41
2023-03-16T03:33:20.108Z,101401.59
2023-03-16T03:35:57.311Z,101398.06
2023-03-16T03:38:30.046Z,101396.50
2023-03-16T03:41:01.943Z,101400.06
2023-03-16T03:43:34.109Z,101396.50
2023-03-16T03:46:06.959Z,101397.50
2023-03-16T03:48:41.027Z,101396.66
2023-03-16T03:51:12.569Z,101395.03
2023-03-16T03:53:44.464Z,101393.31
2023-03-16T03:56:16.289Z,101394.16
2023-03-16T03:58:48.131Z,101399.41
2023-03-16T04:01:20.010Z,101402.97
2023-03-16T04:03:54.205Z,101399.63
2023-03-16T04:06:26.038Z,101399.63
2023-03-16T04:08:57.882Z,101392.75
2023-03-16T04:11:29.737Z,101394.47
2023-03-16T04:14:01.639Z,101395.31
2023-03-16T04:16:34.014Z,101405.59
2023-03-16T04:19:06.992Z,101403.91
2023-03-16T04:21:38.825Z,101404.81
2023-03-16T04:24:14.756Z,101403.09
2023-03-16T04:26:47.831Z,101398.84
2023-03-16T04:29:20.379Z,101400.63
2023-03-16T04:31:53.783Z,101402.41
2023-03-16T04:34:27.453Z,101402.63
2023-03-16T04:36:59.391Z,101395.56
2023-03-16T04:39:31.207Z,101393.94
2023-03-16T04:42:03.015Z,101393.94
2023-03-16T04:44:34.676Z,101400.91
2023-03-16T04:47:06.596Z,101398.34
2023-03-16T04:49:39.661Z,101386.16
2023-03-16T04:52:13.512Z,101393.94
2023-03-16T04:54:45.628Z,101405.25
2023-03-16T04:57:19.192Z,101400.91
2023-03-16T04:59:51.126Z,101398.47
2023-03-16T05:02:22.932Z,101395.94
2023-03-16T05:04:55.934Z,101398.56
2023-03-16T05:07:28.882Z,101399.41
2023-03-16T05:10:00.571Z,101398.47
2023-03-16T05:12:32.407Z,101401.31
2023-03-16T05:15:04.399Z,101404.75
2023-03-16T05:17:37.480Z,101411.00
2023-03-16T05:20:16.189Z,101397.91
2023-03-16T05:22:49.841Z,101403.03
2023-03-16T05:25:22.826Z,101404.75
2023-03-16T05:27:55.546Z,101402.88
2023-03-16T05:30:27.725Z,101401.91
2023-03-16T05:32:59.500Z,101389.53
2023-03-16T05:35:32.608Z,101389.25
2023-03-16T05:38:04.473Z,101391.03
2023-03-16T05:40:37.216Z,101387.50
2023-03-16T05:43:09.295Z,101391.81
2023-03-16T05:45:40.898Z,101387.44
2023-03-16T05:48:12.696Z,101389.97
2023-03-16T05:50:45.881Z,101385.50
2023-03-16T05:53:17.872Z,101388.00
2023-03-16T05:55:54.779Z,101387.91
2023-03-16T05:58:26.877Z,101380.03
2023-03-16T06:01:01.090Z,101368.53
2023-03-16T06:03:32.963Z,101364.09
2023-03-16T06:06:06.195Z,101358.69
2023-03-16T06:08:38.169Z,101363.03
2023-03-16T06:11:09.897Z,101356.88
2023-03-16T06:13:42.252Z,101362.84
2023-03-16T06:16:14.406Z,101359.13
2023-03-16T06:18:46.471Z,101368.66
2023-03-16T06:21:19.561Z,101367.66
2023-03-16T06:23:51.378Z,101358.69
2023-03-16T06:26:23.176Z,101369.06
2023-03-16T06:28:55.603Z,101368.00
2023-03-16T06:31:27.490Z,101374.72
2023-03-16T06:33:59.336Z,101377.13
2023-03-16T06:36:32.296Z,101381.38
2023-03-16T06:39:04.390Z,101383.09
2023-03-16T06:41:36.583Z,101383.03
2023-03-16T06:44:08.407Z,101375.00
2023-03-16T06:46:40.164Z,101378.38
2023-03-16T06:49:12.020Z,101381.66
2023-03-16T06:51:45.780Z,101384.16
2023-03-16T06:54:17.608Z,101393.72
2023-03-16T06:56:49.522Z,101388.34
2023-03-16T06:59:21.510Z,101400.53
2023-03-16T07:01:53.334Z,101400.38
2023-03-16T07:04:25.232Z,101409.06
2023-03-16T07:06:58.520Z,101403.66
2023-03-16T07:09:30.390Z,101417.50
2023-03-16T07:12:02.267Z,101410.31
2023-03-16T07:14:34.209Z,101424.19
2023-03-16T07:17:06.479Z,101415.91
2023-03-16T07:19:41.113Z,101420.94
2023-03-16T07:22:14.478Z,101425.22
2023-03-16T07:24:46.818Z,101418.06
2023-03-16T07:27:18.682Z,101427.44
2023-03-16T07:29:50.764Z,101422.72
2023-03-16T07:32:22.964Z,101420.88
2023-03-16T07:34:54.553Z,101431.25
2023-03-16T07:37:27.561Z,101433.56
2023-03-16T07:39:59.382Z,101429.78
2023-03-16T07:42:31.305Z,101432.84
2023-03-16T07:45:03.174Z,101435.09
2023-03-16T07:47:35.319Z,101437.50
2023-03-16T07:50:09.244Z,101436.47
2023-03-16T07:52:42.411Z,101430.13
2023-03-16T07:55:16.241Z,101435.84
2023-03-16T07:57:48.308Z,101428.44
2023-03-16T08:00:23.953Z,101433.31
2023-03-16T08:02:57.532Z,101427.72
2023-03-16T08:05:29.123Z,101437.78
2023-03-16T08:08:02.357Z,101437.53
2023-03-16T08:10:34.211Z,101442.16
2023-03-16T08:13:05.648Z,101438.31
2023-03-16T08:15:37.923Z,101433.50
2023-03-16T08:18:10.439Z,101432.22
2023-03-16T08:20:44.496Z,101428.81
2023-03-16T08:23:17.505Z,101431.88
2023-03-16T08:25:52.385Z,101434.69
2023-03-16T08:28:25.844Z,101433.28
2023-03-16T08:30:58.850Z,101439.16
2023-03-16T08:33:30.816Z,101439.31
2023-03-16T08:36:02.848Z,101438.81
2023-03-16T08:38:35.902Z,101439.53
2023-03-16T08:41:07.811Z,101433.16
2023-03-16T08:43:40.144Z,101442.59
2023-03-16T08:46:13.305Z,101445.75
2023-03-16T08:48:46.119Z,101441.13
2023-03-16T08:51:18.860Z,101445.09
2023-03-16T08:53:52.796Z,101449.25
2023-03-16T08:56:24.383Z,101436.44
2023-03-16T08:58:57.362Z,101441.16
2023-03-16T09:01:31.886Z,101432.88
2023-03-16T09:04:05.255Z,101437.50
2023-03-16T09:06:39.192Z,101440.34
2023-03-16T09:09:12.410Z,101441.22
2023-03-16T09:11:47.010Z,101436.19
2023-03-16T09:14:21.134Z,101436.66
2023-03-16T09:16:53.149Z,101426.66
2023-03-16T09:19:29.102Z,101425.19
2023-03-16T09:22:03.976Z,101422.81
2023-03-16T09:24:37.582Z,101420.53
2023-03-16T09:27:12.044Z,101412.53
2023-03-16T09:29:46.587Z,101419.22
2023-03-16T09:32:19.046Z,101413.59
2023-03-16T09:34:52.450Z,101409.25
2023-03-16T09:37:27.903Z,101411.75
2023-03-16T09:40:06.915Z,101415.88
2023-03-16T09:43:03.641Z,101410.81
2023-03-16T09:45:49.860Z,101405.94
2023-03-16T09:48:24.548Z,101395.13
2023-03-16T09:51:00.921Z,101393.09
2023-03-16T09:53:37.621Z,101398.19
2023-03-16T09:56:30.454Z,101393.94
2023-03-16T09:59:54.927Z,101390.94
2023-03-16T10:03:35.290Z,101390.75
2023-03-16T10:06:22.457Z,101391.44
2023-03-16T10:09:07.465Z,101395.28
2023-03-16T10:11:48.099Z,101398.44
2023-03-16T10:14:30.305Z,101400.22
2023-03-16T10:17:11.198Z,101397.09
2023-03-16T10:19:49.113Z,101399.09
2023-03-16T10:22:28.167Z,101395.78
2023-03-16T10:25:08.608Z,101387.81
2023-03-16T10:27:45.224Z,101388.84
2023-03-16T10:30:23.376Z,101387.03
2023-03-16T10:33:01.932Z,101379.22
2023-03-16T10:35:42.653Z,101377.44
2023-03-16T10:38:28.790Z,101376.22
2023-03-16T10:41:00.627Z,101374.47
2023-03-16T10:43:36.945Z,101374.31
2023-03-16T10:46:14.720Z,101371.31
2023-03-16T10:48:53.333Z,101365.91
2023-03-16T10:51:30.920Z,101362.63
2023-03-16T10:54:15.807Z,101367.13
2023-03-16T10:56:50.444Z,101367.63
2023-03-16T10:59:34.320Z,101358.91
2023-03-16T11:02:16.303Z,101348.03
2023-03-16T11:04:49.477Z,101357.22
2023-03-16T11:07:24.188Z,101345.13
2023-03-16T11:09:58.626Z,101345.13
2023-03-16T11:12:34.866Z,101346.31
2023-03-16T11:15:25.193Z,101339.53
2023-03-16T11:17:57.897Z,101343.75
2023-03-16T11:20:34.575Z,101341.84
2023-03-16T11:23:14.900Z,101331.75
2023-03-16T11:25:54.745Z,101338.00
2023-03-16T11:28:38.605Z,101324.81
2023-03-16T11:31:24.329Z,101323.44
2023-03-16T11:33:57.499Z,101325.34
2023-03-16T11:36:43.240Z,101323.59
2023-03-16T11:39:26.440Z,101316.13
2023-03-16T11:42:14.363Z,101316.22
2023-03-16T11:44:56.879Z,101311.25
2023-03-16T11:48:04.927Z,101302.56
2023-03-16T11:50:48.089Z,101305.91
2023-03-16T11:53:33.122Z,101299.34
2023-03-16T11:56:17.075Z,101278.47
2023-03-16T11:59:02.338Z,101280.41
2023-03-16T12:02:00.163Z,101283.50
2023-03-16T12:04:52.632Z,101277.16
2023-03-16T12:07:45.699Z,101282.47
2023-03-16T12:10:27.991Z,101277.03
2023-03-16T12:13:17.450Z,101273.84
2023-03-16T12:15:55.410Z,101268.28
2023-03-16T12:18:34.216Z,101267.75
2023-03-16T12:21:13.143Z,101262.97
2023-03-16T12:23:55.287Z,101260.34
2023-03-16T12:26:38.568Z,101248.81
2023-03-16T12:29:22.666Z,101263.31
2023-03-16T12:32:04.856Z,101237.19
2023-03-16T12:34:47.453Z,101231.31
2023-03-16T12:37:31.051Z,101234.69
2023-03-16T12:40:29.920Z,101226.25
2023-03-16T12:43:19.006Z,101218.09
2023-03-16T12:46:00.597Z,101222.03
2023-03-16T12:48:38.738Z,101217.53
2023-03-16T12:51:11.486Z,101213.59
2023-03-16T12:53:55.447Z,101222.31
2023-03-16T12:56:36.429Z,101210.50
2023-03-16T12:59:16.412Z,101226.69
2023-03-16T13:01:54.561Z,101205.31
2023-03-16T13:04:36.271Z,101199.22
2023-03-16T13:07:17.357Z,101198.84
2023-03-16T13:09:57.217Z,101198.41
2023-03-16T13:12:32.900Z,101190.94
2023-03-16T13:15:19.967Z,101182.94
2023-03-16T13:18:05.238Z,101183.81
2023-03-16T13:20:50.782Z,101179.16
2023-03-16T13:23:27.445Z,101178.59
2023-03-16T13:26:15.282Z,101176.19
2023-03-16T13:28:52.112Z,101175.44
2023-03-16T13:31:29.876Z,101169.44
2023-03-16T13:34:03.802Z,101152.84
2023-03-16T13:36:38.069Z,101147.50
2023-03-16T13:39:19.735Z,101147.19
2023-03-16T13:42:10.680Z,101162.09
2023-03-16T13:44:45.666Z,101163.09
2023-03-16T13:47:20.480Z,101151.13
2023-03-16T13:49:56.476Z,101153.09
2023-03-16T13:52:34.165Z,101149.81
2023-03-16T13:55:15.310Z,101148.53
2023-03-16T13:57:51.418Z,101135.97
2023-03-16T14:00:29.010Z,101142.03
2023-03-16T14:03:09.516Z,101136.38
2023-03-16T14:05:41.536Z,101134.13
2023-03-16T14:08:23.304Z,101127.41
2023-03-16T14:11:00.614Z,101119.53
2023-03-16T14:13:39.419Z,101124.88
2023-03-16T14:16:17.765Z,101116.34
2023-03-16T14:18:53.726Z,101109.47
2023-03-16T14:21:30.298Z,101108.66
2023-03-16T14:24:05.401Z,101108.38
2023-03-16T14:26:46.457Z,101100.25
2023-03-16T14:29:26.718Z,101104.88
2023-03-16T14:32:00.070Z,101096.84
2023-03-16T14:34:39.570Z,101109.81
2023-03-16T14:37:14.708Z,101098.41
2023-03-16T14:39:47.830Z,101085.50
2023-03-16T14:42:27.474Z,101082.56
2023-03-16T14:45:04.738Z,101081.84
2023-03-16T14:47:43.238Z,101080.59
2023-03-16T14:50:19.693Z,101082.84
2023-03-16T14:52:52.664Z,101060.06
2023-03-16T14:55:25.808Z,101058.13
2023-03-16T14:57:57.562Z,101049.66
2023-03-16T15:00:37.158Z,101043.22
2023-03-16T15:03:18.428Z,101038.16
2023-03-16T15:05:53.106Z,101046.03
2023-03-16T15:08:32.106Z,101034.09
2023-03-16T15:11:07.848Z,101035.38
2023-03-16T15:13:59.512Z,101033.38
2023-03-16T15:16:34.352Z,101039.44
2023-03-16T15:19:06.296Z,101034.94
2023-03-16T15:21:38.082Z,101040.69
2023-03-16T15:24:12.599Z,101033.97
2023-03-16T15:26:44.203Z,101022.88
2023-03-16T15:29:19.695Z,101015.44
2023-03-16T15:31:54.496Z,101020.47
2023-03-16T15:34:27.355Z,101024.69
2023-03-16T15:36:58.910Z,101010.22
2023-03-16T15:39:30.771Z,101008.69
2023-03-16T15:42:02.727Z,101006.44
2023-03-16T15:44:34.538Z,101005.44
2023-03-16T15:47:07.672Z,100987.06
2023-03-16T15:49:47.276Z,100978.31
2023-03-16T15:52:32.899Z,100975.53
2023-03-16T15:55:08.298Z,100985.34
2023-03-16T15:57:41.221Z,100996.03
2023-03-16T16:00:28.402Z,100983.66
2023-03-16T16:03:03.636Z,100970.31
2023-03-16T16:05:36.563Z,100982.72
2023-03-16T16:08:09.434Z,100975.56
2023-03-16T16:10:44.656Z,100970.75
2023-03-16T16:13:24.832Z,100976.09
2023-03-16T16:15:59.001Z,100966.00
2023-03-16T16:18:37.330Z,100966.84
2023-03-16T16:21:19.142Z,100958.16
2023-03-16T16:23:51.707Z,100954.06
2023-03-16T16:26:48.316Z,100956.19
2023-03-16T16:29:27.072Z,100952.78
2023-03-16T16:31:59.099Z,100944.38
2023-03-16T16:34:32.113Z,100940.44
2023-03-16T16:37:04.178Z,100941.28
2023-03-16T16:39:35.848Z,100939.63
2023-03-16T16:42:13.076Z,100951.41
2023-03-16T16:44:44.917Z,100948.88
2023-03-16T16:47:23.483Z,100955.44
2023-03-16T16:49:57.647Z,100947.44
2023-03-16T16:52:29.522Z,100949.66
2023-03-16T16:55:01.543Z,100941.97
2023-03-16T16:57:33.296Z,100935.94
2023-03-16T17:00:07.256Z,100935.94
2023-03-16T17:02:48.423Z,100933.41
2023-03-16T17:05:27.094Z,100938.72
2023-03-16T17:08:03.984Z,100931.41
2023-03-16T17:10:37.705Z,100929.88
2023-03-16T17:13:15.707Z,100924.38
2023-03-16T17:15:47.887Z,100923.41
2023-03-16T17:18:20.572Z,100908.69
2023-03-16T17:20:53.770Z,100908.94
2023-03-16T17:23:34.411Z,100908.94
2023-03-16T17:26:14.753Z,100902.94
2023-03-16T17:28:52.942Z,100911.06
2023-03-16T17:31:35.163Z,100911.50
2023-03-16T17:34:16.727Z,100902.94
2023-03-16T17:36:51.126Z,100915.41
2023-03-16T17:39:27.040Z,100907.53
2023-03-16T17:42:02.911Z,100899.66
2023-03-16T17:44:39.053Z,100905.53
2023-03-16T17:47:21.381Z,100901.06
2023-03-16T17:49:53.591Z,100918.47
2023-03-16T17:52:29.753Z,100910.28
2023-03-16T17:55:01.294Z,100908.88
2023-03-16T17:57:36.931Z,100909.16
2023-03-16T18:00:22.480Z,100916.16
2023-03-16T18:02:57.320Z,100920.06
2023-03-16T18:05:32.584Z,100911.38
2023-03-16T18:08:14.971Z,100907.19
2023-03-16T18:10:49.068Z,100916.00
2023-03-16T18:13:29.053Z,100910.25
2023-03-16T18:16:02.698Z,100908.81
2023-03-16T18:18:39.621Z,100898.44
2023-03-16T18:21:17.847Z,100896.75
2023-03-16T18:23:53.633Z,100905.00
2023-03-16T18:26:27.441Z,100895.91
2023-03-16T18:28:59.308Z,100903.47
2023-03-16T18:31:32.525Z,100898.81
2023-03-16T18:34:07.149Z,100891.38
2023-03-16T18:36:41.179Z,100900.31
2023-03-16T18:39:22.897Z,100901.16
2023-03-16T18:41:54.747Z,100896.97
2023-03-16T18:44:30.383Z,100892.88
2023-03-16T18:47:05.902Z,100890.47
2023-03-16T18:49:40.291Z,100879.94
2023-03-16T18:52:22.042Z,100875.63
2023-03-16T18:54:55.624Z,100873.34
2023-03-16T18:57:29.541Z,100877.38
2023-03-16T19:00:01.399Z,100871.94
2023-03-16T19:02:39.349Z,100867.47
2023-03-16T19:05:17.527Z,100877.78
2023-03-16T19:07:53.051Z,100871.47
2023-03-16T19:10:35.416Z,100876.09
2023-03-16T19:13:14.459Z,100873.00
2023-03-16T19:15:46.729Z,100871.44
2023-03-16T19:18:19.645Z,100862.88
2023-03-16T19:20:54.738Z,100856.69
2023-03-16T19:23:31.440Z,100863.88
2023-03-16T19:26:04.594Z,100862.56
2023-03-16T19:28:40.838Z,100868.97
2023-03-16T19:31:22.262Z,100868.28
2023-03-16T19:33:54.026Z,100871.19
2023-03-16T19:36:30.237Z,100871.34
2023-03-16T19:39:04.054Z,100871.44
2023-03-16T19:41:40.370Z,100862.31
2023-03-16T19:44:18.524Z,100859.06
2023-03-16T19:46:52.216Z,100861.88
2023-03-16T19:49:27.016Z,100857.50
2023-03-16T19:52:00.087Z,100859.72
2023-03-16T19:54:35.052Z,100860.69
2023-03-16T19:57:15.311Z,100853.25
2023-03-16T19:59:51.365Z,100852.97
2023-03-16T20:02:37.121Z,100845.53
2023-03-16T20:05:16.051Z,100852.50
2023-03-16T20:07:47.919Z,100854.72
2023-03-16T20:10:28.949Z,100850.53
2023-03-16T20:13:05.653Z,100846.75
2023-03-16T20:15:38.578Z,100834.00
2023-03-16T20:18:14.406Z,100840.00
2023-03-16T20:20:47.741Z,100831.34
2023-03-16T20:23:24.366Z,100831.56
2023-03-16T20:26:01.394Z,100822.19
2023-03-16T20:28:39.970Z,100833.31
2023-03-16T20:31:18.705Z,100820.44
2023-03-16T20:33:52.952Z,100817.63
2023-03-16T20:36:26.569Z,100814.84
2023-03-16T20:38:58.201Z,100816.06
2023-03-16T20:41:32.884Z,100815.81
2023-03-16T20:44:06.377Z,100799.63
2023-03-16T20:46:41.087Z,100798.06
2023-03-16T20:49:32.302Z,100786.47
2023-03-16T20:52:03.997Z,100782.25
2023-03-16T20:54:35.841Z,100778.78
2023-03-16T20:57:17.245Z,100787.69
2023-03-16T20:59:51.589Z,100782.38
2023-03-16T21:02:34.004Z,100785.88
2023-03-16T21:05:08.915Z,100792.50
2023-03-16T21:07:40.780Z,100784.19
2023-03-16T21:10:15.878Z,100779.09
2023-03-16T21:12:53.026Z,100773.69
2023-03-16T21:15:30.747Z,100774.75
2023-03-16T21:18:06.430Z,100769.72
2023-03-16T21:20:39.182Z,100764.06
2023-03-16T21:23:17.031Z,100760.03
2023-03-16T21:25:56.634Z,100753.19
2023-03-16T21:28:33.032Z,100753.19
2023-03-16T21:31:08.380Z,100758.50
2023-03-16T21:33:43.168Z,100759.03
2023-03-16T21:36:21.094Z,100746.97
2023-03-16T21:38:56.371Z,100757.00
2023-03-16T21:41:28.207Z,100747.91
2023-03-16T21:44:00.133Z,100748.91
2023-03-16T21:46:32.540Z,100739.38
2023-03-16T21:49:04.901Z,100739.50
2023-03-16T21:51:36.891Z,100729.84
2023-03-16T21:54:15.418Z,100724.53
2023-03-16T21:56:47.684Z,100719.22
2023-03-16T21:59:23.416Z,100713.06
2023-03-16T22:02:02.067Z,100704.13
2023-03-16T22:04:36.600Z,100704.84
2023-03-16T22:07:11.443Z,100695.22
2023-03-16T22:09:43.396Z,100696.75
2023-03-16T22:12:16.586Z,100687.94
2023-03-16T22:14:49.838Z,100689.06
2023-03-16T22:17:27.427Z,100671.56
2023-03-16T22:20:00.307Z,100684.13
2023-03-16T22:22:35.237Z,100685.22
2023-03-16T22:25:14.513Z,100682.56
2023-03-16T22:27:48.724Z,100678.38
2023-03-16T22:30:20.683Z,100682.09
2023-03-16T22:32:58.665Z,100680.19
2023-03-16T22:35:39.016Z,100677.53
2023-03-16T22:38:16.458Z,100666.91
2023-03-16T22:40:48.493Z,100668.97
2023-03-16T22:43:29.496Z,100671.38
2023-03-16T22:46:01.438Z,100670.78
2023-03-16T22:48:35.577Z,100676.78
2023-03-16T22:51:08.327Z,100668.13
2023-03-16T22:53:45.888Z,100661.84
2023-03-16T22:56:17.810Z,100650.38
2023-03-16T22:58:54.823Z,100647.00
2023-03-16T23:01:32.589Z,100626.88
2023-03-16T23:04:13.744Z,100629.25
2023-03-16T23:06:50.838Z,100625.19
2023-03-16T23:09:23.441Z,100624.09
2023-03-16T23:11:59.363Z,100620.72
2023-03-16T23:14:38.064Z,100619.06
2023-03-16T23:17:13.433Z,100609.50
2023-03-16T23:19:47.827Z,100614.13
2023-03-16T23:22:19.778Z,100620.41
2023-03-16T23:24:51.586Z,100613.16
2023-03-16T23:27:24.704Z,100621.81
2023-03-16T23:29:56.293Z,100624.38
2023-03-16T23:32:28.363Z,100615.56
2023-03-16T23:35:02.113Z,100617.94
2023-03-16T23:37:34.019Z,100616.13
2023-03-16T23:40:05.922Z,100603.56
2023-03-16T23:42:38.335Z,100614.34
2023-03-16T23:45:20.843Z,100612.50
2023-03-16T23:47:55.364Z,100614.91
2023-03-16T23:50:34.095Z,100619.38
2023-03-16T23:53:11.685Z,100616.00
2023-03-16T23:55:43.883Z,100618.66
2023-03-16T23:58:16.958Z,100609.44
